createdAt,value
2023-03-10T00:00:40.715Z,93959.19
2023-03-10T00:03:09.145Z,93946.69
2023-03-10T00:05:39.347Z,93946.75
2023-03-10T00:08:08.039Z,93947.78
2023-03-10T00:10:36.024Z,93937.34
2023-03-10T00:13:03.972Z,93938.91
2023-03-10T00:15:32.691Z,93935.25
2023-03-10T00:18:00.682Z,93941.41
2023-03-10T00:20:28.709Z,93942.94
2023-03-10T00:22:57.958Z,93936.66
2023-03-10T00:25:25.848Z,93929.88
2023-03-10T00:27:53.903Z,93915.03
2023-03-10T00:30:23.719Z,93920.03
2023-03-10T00:32:51.860Z,93923.66
2023-03-10T00:35:19.891Z,93915.84
2023-03-10T00:37:47.853Z,93933.50
2023-03-10T00:40:18.929Z,93944.94
2023-03-10T00:42:46.855Z,93934.50
2023-03-10T00:45:14.822Z,93932.88
2023-03-10T00:47:43.017Z,93932.81
2023-03-10T00:50:12.482Z,93922.69
2023-03-10T00:52:40.507Z,93937.53
2023-03-10T00:55:09.276Z,93932.56
2023-03-10T00:57:39.310Z,93922.88
2023-03-10T01:00:10.627Z,93920.25
2023-03-10T01:02:38.560Z,93919.16
2023-03-10T01:05:06.737Z,93912.19
2023-03-10T01:07:34.657Z,93923.44
2023-03-10T01:10:02.585Z,93919.84
2023-03-10T01:12:30.575Z,93923.69
2023-03-10T01:14:59.833Z,93940.28
2023-03-10T01:17:27.759Z,93948.34
2023-03-10T01:19:55.659Z,93941.66
2023-03-10T01:22:23.604Z,93955.22
2023-03-10T01:24:52.328Z,93933.41
2023-03-10T01:27:20.326Z,93923.06
2023-03-10T01:29:48.305Z,93930.78
2023-03-10T01:32:18.200Z,93930.75
2023-03-10T01:34:46.139Z,93919.84
2023-03-10T01:37:14.133Z,93910.19
2023-03-10T01:39:43.200Z,93910.97
2023-03-10T01:42:11.170Z,93917.31
2023-03-10T01:44:39.410Z,93902.75
2023-03-10T01:47:07.500Z,93884.53
2023-03-10T01:49:50.536Z,93882.47
2023-03-10T01:52:23.164Z,93869.47
2023-03-10T01:54:56.062Z,93865.84
2023-03-10T01:57:28.192Z,93871.59
2023-03-10T01:59:58.186Z,93867.22
2023-03-10T02:02:28.379Z,93864.34
2023-03-10T02:04:59.388Z,93860.22
2023-03-10T02:07:33.683Z,93837.28
2023-03-10T02:10:03.331Z,93831.78
2023-03-10T02:12:31.359Z,93837.22
2023-03-10T02:15:00.685Z,93825.22
2023-03-10T02:17:29.433Z,93826.28
2023-03-10T02:20:16.236Z,93822.16
2023-03-10T02:22:44.210Z,93810.72
2023-03-10T02:25:26.406Z,93801.84
2023-03-10T02:27:56.349Z,93798.72
2023-03-10T02:30:28.743Z,93782.56
2023-03-10T02:33:00.106Z,93781.00
2023-03-10T02:35:29.043Z,93762.22
2023-03-10T02:38:02.343Z,93745.00
2023-03-10T02:40:34.831Z,93745.00
2023-03-10T02:43:17.825Z,93736.16
2023-03-10T02:45:48.534Z,93745.00
2023-03-10T02:48:28.359Z,93732.50
2023-03-10T02:50:58.912Z,93722.06
2023-03-10T02:53:28.688Z,93720.78
2023-03-10T02:55:57.637Z,93711.13
2023-03-10T02:58:29.260Z,93709.56
2023-03-10T03:00:57.743Z,93685.06
2023-03-10T03:03:26.563Z,93685.66
2023-03-10T03:05:55.160Z,93675.75
2023-03-10T03:08:23.630Z,93676.81
2023-03-10T03:10:52.874Z,93682.53
2023-03-10T03:13:21.083Z,93678.38
2023-03-10T03:15:51.264Z,93660.13
2023-03-10T03:18:19.322Z,93645.50
2023-03-10T03:20:47.228Z,93651.25
2023-03-10T03:23:15.292Z,93655.66
2023-03-10T03:25:44.081Z,93650.72
2023-03-10T03:28:15.275Z,93641.88
2023-03-10T03:30:46.778Z,93635.59
2023-03-10T03:33:16.893Z,93621.00
2023-03-10T03:35:46.326Z,93629.88
2023-03-10T03:38:16.828Z,93624.66
2023-03-10T03:40:45.584Z,93612.91
2023-03-10T03:43:15.931Z,93609.28
2023-03-10T03:45:46.242Z,93601.72
2023-03-10T03:48:16.222Z,93614.22
2023-03-10T03:50:44.165Z,93607.44
2023-03-10T03:53:22.196Z,93591.28
2023-03-10T03:55:51.250Z,93571.19
2023-03-10T03:58:21.776Z,93537.56
2023-03-10T04:00:52.062Z,93533.91
2023-03-10T04:03:22.074Z,93534.97
2023-03-10T04:05:50.486Z,93551.13
2023-03-10T04:08:21.072Z,93557.91
2023-03-10T04:10:54.507Z,93568.84
2023-03-10T04:13:25.663Z,93571.19
2023-03-10T04:15:56.655Z,93580.50
2023-03-10T04:18:27.482Z,93591.19
2023-03-10T04:20:55.926Z,93568.25
2023-03-10T04:23:23.878Z,93563.28
2023-03-10T04:25:52.193Z,93551.53
2023-03-10T04:28:20.248Z,93527.53
2023-03-10T04:30:50.271Z,93520.22
2023-03-10T04:33:20.980Z,93526.22
2023-03-10T04:35:53.519Z,93514.97
2023-03-10T04:38:24.068Z,93514.97
2023-03-10T04:40:56.387Z,93525.41
2023-03-10T04:43:28.728Z,93531.63
2023-03-10T04:45:57.501Z,93534.78
2023-03-10T04:48:25.754Z,93544.19
2023-03-10T04:50:59.096Z,93530.34
2023-03-10T04:53:29.954Z,93510.28
2023-03-10T04:55:58.363Z,93511.31
2023-03-10T04:58:26.529Z,93522.28
2023-03-10T05:01:03.272Z,93519.94
2023-03-10T05:03:36.677Z,93513.41
2023-03-10T05:06:12.053Z,93523.81
2023-03-10T05:08:40.372Z,93515.47
2023-03-10T05:11:09.471Z,93518.59
2023-03-10T05:13:37.658Z,93536.31
2023-03-10T05:16:13.891Z,93534.22
2023-03-10T05:18:42.025Z,93532.66
2023-03-10T05:21:12.601Z,93534.75
2023-03-10T05:23:41.192Z,93531.63
2023-03-10T05:26:12.090Z,93533.72
2023-03-10T05:28:40.811Z,93539.72
2023-03-10T05:31:12.280Z,93547.78
2023-03-10T05:33:42.961Z,93554.56
2023-03-10T05:36:14.674Z,93549.84
2023-03-10T05:38:44.753Z,93542.75
2023-03-10T05:41:15.584Z,93552.66
2023-03-10T05:43:46.133Z,93570.94
2023-03-10T05:46:16.756Z,93570.16
2023-03-10T05:48:50.477Z,93564.19
2023-03-10T05:51:20.377Z,93574.88
2023-03-10T05:53:48.758Z,93565.53
2023-03-10T05:56:22.448Z,93567.06
2023-03-10T05:58:54.515Z,93568.91
2023-03-10T06:01:28.931Z,93577.47
2023-03-10T06:03:57.072Z,93573.31
2023-03-10T06:06:26.380Z,93580.59
2023-03-10T06:08:55.545Z,93596.72
2023-03-10T06:11:23.655Z,93594.63
2023-03-10T06:13:51.630Z,93591.97
2023-03-10T06:16:19.723Z,93599.25
2023-03-10T06:18:47.707Z,93590.44
2023-03-10T06:21:16.346Z,93592.06
2023-03-10T06:23:45.581Z,93598.81
2023-03-10T06:26:15.274Z,93607.09
2023-03-10T06:28:44.976Z,93625.88
2023-03-10T06:31:15.308Z,93635.78
2023-03-10T06:33:43.705Z,93645.88
2023-03-10T06:36:12.907Z,93655.91
2023-03-10T06:38:41.165Z,93662.22
2023-03-10T06:41:10.776Z,93674.06
2023-03-10T06:43:39.276Z,93696.63
2023-03-10T06:46:09.613Z,93690.34
2023-03-10T06:48:38.679Z,93688.91
2023-03-10T06:51:08.095Z,93687.59
2023-03-10T06:53:36.035Z,93696.56
2023-03-10T06:56:06.333Z,93711.75
2023-03-10T06:58:37.260Z,93712.75
2023-03-10T07:01:06.201Z,93718.09
2023-03-10T07:03:34.284Z,93720.78
2023-03-10T07:06:02.255Z,93724.34
2023-03-10T07:08:30.957Z,93712.25
2023-03-10T07:10:58.888Z,93717.06
2023-03-10T07:13:26.846Z,93716.41
2023-03-10T07:15:56.119Z,93718.53
2023-03-10T07:18:27.791Z,93720.09
2023-03-10T07:20:55.756Z,93733.44
2023-03-10T07:23:24.261Z,93736.50
2023-03-10T07:25:53.597Z,93742.84
2023-03-10T07:28:21.566Z,93748.06
2023-03-10T07:30:49.592Z,93761.72
2023-03-10T07:33:19.325Z,93773.16
2023-03-10T07:35:47.415Z,93783.47
2023-03-10T07:38:15.369Z,93782.44
2023-03-10T07:40:43.307Z,93773.41
2023-03-10T07:43:11.235Z,93778.91
2023-03-10T07:45:39.935Z,93780.47
2023-03-10T07:48:08.538Z,93774.34
2023-03-10T07:50:37.870Z,93777.50
2023-03-10T07:53:05.846Z,93762.38
2023-03-10T07:55:33.897Z,93777.50
2023-03-10T07:58:01.814Z,93789.28
2023-03-10T08:00:29.736Z,93804.22
2023-03-10T08:02:57.653Z,93818.56
2023-03-10T08:05:25.608Z,93828.03
2023-03-10T08:07:54.976Z,93831.19
2023-03-10T08:10:22.900Z,93819.38
2023-03-10T08:12:50.871Z,93826.47
2023-03-10T08:15:18.974Z,93831.09
2023-03-10T08:17:46.855Z,93832.28
2023-03-10T08:20:15.161Z,93831.38
2023-03-10T08:22:43.113Z,93840.34
2023-03-10T08:25:12.979Z,93851.63
2023-03-10T08:27:41.591Z,93848.78
2023-03-10T08:30:10.732Z,93864.41
2023-03-10T08:32:38.698Z,93882.78
2023-03-10T08:35:07.790Z,93885.13
2023-03-10T08:37:35.791Z,93889.13
2023-03-10T08:40:08.145Z,93887.69
2023-03-10T08:42:37.494Z,93884.53
2023-03-10T08:45:08.483Z,93888.16
2023-03-10T08:47:37.122Z,93895.97
2023-03-10T08:50:07.245Z,93903.78
2023-03-10T08:52:35.389Z,93895.50
2023-03-10T08:55:05.211Z,93903.13
2023-03-10T08:57:33.671Z,93907.41
2023-03-10T09:00:04.249Z,93904.28
2023-03-10T09:02:32.232Z,93911.66
2023-03-10T09:05:00.168Z,93919.03
2023-03-10T09:07:28.135Z,93922.69
2023-03-10T09:09:56.105Z,93924.75
2023-03-10T09:12:24.051Z,93928.91
2023-03-10T09:14:52.288Z,93924.75
2023-03-10T09:17:21.731Z,93924.75
2023-03-10T09:19:49.628Z,93933.59
2023-03-10T09:22:17.821Z,93941.41
2023-03-10T09:24:45.742Z,93948.00
2023-03-10T09:27:13.669Z,93948.63
2023-03-10T09:29:43.282Z,93961.19
2023-03-10T09:32:11.981Z,93974.16
2023-03-10T09:34:41.571Z,93985.19
2023-03-10T09:37:09.579Z,93988.78
2023-03-10T09:39:37.474Z,94000.88
2023-03-10T09:42:39.025Z,93996.03
2023-03-10T09:45:20.021Z,94013.41
2023-03-10T09:47:58.769Z,94008.81
2023-03-10T09:50:34.708Z,94020.47
2023-03-10T09:53:08.749Z,94023.16
2023-03-10T09:55:47.515Z,94023.31
2023-03-10T09:58:25.614Z,94023.63
2023-03-10T10:00:53.515Z,94025.03
2023-03-10T10:03:23.412Z,94029.94
2023-03-10T10:05:55.378Z,94036.72
2023-03-10T10:08:28.877Z,94039.38
2023-03-10T10:10:58.562Z,94043.00
2023-03-10T10:13:30.594Z,94052.94
2023-03-10T10:16:24.633Z,94048.38
2023-03-10T10:19:01.843Z,94048.13
2023-03-10T10:21:42.531Z,94056.91
2023-03-10T10:24:11.103Z,94058.19
2023-03-10T10:26:39.037Z,94054.31
2023-03-10T10:29:16.516Z,94055.47
2023-03-10T10:32:02.305Z,94063.69
2023-03-10T10:34:32.056Z,94061.56
2023-03-10T10:37:02.203Z,94061.69
2023-03-10T10:39:33.691Z,94064.63
2023-03-10T10:42:20.052Z,94067.47
2023-03-10T10:44:48.539Z,94074.25
2023-03-10T10:47:27.229Z,94066.34
2023-03-10T10:49:56.626Z,94073.59
2023-03-10T10:52:27.071Z,94079.47
2023-03-10T10:54:59.340Z,94084.66
2023-03-10T10:57:33.395Z,94076.47
2023-03-10T11:00:18.591Z,94077.72
2023-03-10T11:02:46.945Z,94063.81
2023-03-10T11:05:17.972Z,94069.13
2023-03-10T11:07:47.698Z,94074.41
2023-03-10T11:10:16.889Z,94087.00
2023-03-10T11:13:01.487Z,94088.44
2023-03-10T11:15:33.899Z,94113.22
2023-03-10T11:18:10.066Z,94136.63
2023-03-10T11:20:43.890Z,94122.50
2023-03-10T11:23:22.534Z,94133.69
2023-03-10T11:25:55.880Z,94127.97
2023-03-10T11:28:35.661Z,94140.81
2023-03-10T11:31:16.255Z,94144.91
2023-03-10T11:33:51.508Z,94157.97
2023-03-10T11:36:31.842Z,94158.28
2023-03-10T11:39:11.936Z,94151.97
2023-03-10T11:41:48.678Z,94161.78
2023-03-10T11:44:24.492Z,94170.00
2023-03-10T11:47:01.932Z,94167.78
2023-03-10T11:49:36.753Z,94165.09
2023-03-10T11:52:13.393Z,94172.66
2023-03-10T11:54:46.429Z,94170.31
2023-03-10T11:57:18.016Z,94175.03
2023-03-10T11:59:51.541Z,94179.78
2023-03-10T12:02:24.740Z,94188.94
2023-03-10T12:04:58.896Z,94184.97
2023-03-10T12:07:30.817Z,94194.44
2023-03-10T12:10:03.545Z,94197.44
2023-03-10T12:12:36.193Z,94201.22
2023-03-10T12:15:11.350Z,94204.69
2023-03-10T12:17:42.290Z,94204.28
2023-03-10T12:20:26.226Z,94196.81
2023-03-10T12:22:56.125Z,94194.78
2023-03-10T12:25:52.524Z,94210.88
2023-03-10T12:28:26.335Z,94210.41
2023-03-10T12:30:57.817Z,94209.44
2023-03-10T12:33:47.419Z,94193.41
2023-03-10T12:36:25.246Z,94189.19
2023-03-10T12:38:57.639Z,94194.50
2023-03-10T12:41:46.791Z,94201.47
2023-03-10T12:44:33.137Z,94205.94
2023-03-10T12:47:13.536Z,94201.09
2023-03-10T12:49:49.322Z,94189.22
2023-03-10T12:52:28.266Z,94188.44
2023-03-10T12:55:06.436Z,94175.66
2023-03-10T12:57:42.051Z,94191.09
2023-03-10T13:00:22.273Z,94177.94
2023-03-10T13:02:54.047Z,94182.19
2023-03-10T13:05:26.117Z,94187.34
2023-03-10T13:07:58.182Z,94200.88
2023-03-10T13:10:28.406Z,94198.91
2023-03-10T13:13:02.145Z,94199.91
2023-03-10T13:15:31.866Z,94205.72
2023-03-10T13:18:19.813Z,94197.47
2023-03-10T13:20:49.083Z,94205.94
2023-03-10T13:23:23.873Z,94205.94
2023-03-10T13:25:56.008Z,94217.41
2023-03-10T13:28:26.442Z,94213.84
2023-03-10T13:31:11.702Z,94207.66
2023-03-10T13:33:52.395Z,94220.75
2023-03-10T13:36:33.076Z,94228.09
2023-03-10T13:39:02.784Z,94239.56
2023-03-10T13:41:33.628Z,94238.59
2023-03-10T13:44:03.858Z,94239.56
2023-03-10T13:46:34.221Z,94236.22
2023-03-10T13:49:06.612Z,94229.72
2023-03-10T13:51:36.545Z,94234.88
2023-03-10T13:54:20.946Z,94237.63
2023-03-10T13:56:49.928Z,94228.47
2023-03-10T13:59:23.093Z,94232.81
2023-03-10T14:01:53.692Z,94229.50
2023-03-10T14:04:41.132Z,94231.56
2023-03-10T14:07:10.733Z,94245.75
2023-03-10T14:09:39.227Z,94236.34
2023-03-10T14:12:07.650Z,94236.91
2023-03-10T14:14:38.631Z,94225.72
2023-03-10T14:17:07.922Z,94225.13
2023-03-10T14:19:53.696Z,94232.41
2023-03-10T14:22:23.825Z,94238.28
2023-03-10T14:24:52.067Z,94241.56
2023-03-10T14:27:20.422Z,94238.16
2023-03-10T14:29:52.413Z,94231.91
2023-03-10T14:32:21.143Z,94242.44
2023-03-10T14:34:49.945Z,94243.56
2023-03-10T14:37:18.072Z,94262.88
2023-03-10T14:39:46.114Z,94259.69
2023-03-10T14:42:21.204Z,94252.88
2023-03-10T14:44:51.046Z,94262.25
2023-03-10T14:47:19.401Z,94257.53
2023-03-10T14:49:47.491Z,94264.81
2023-03-10T14:52:17.705Z,94266.88
2023-03-10T14:54:45.997Z,94278.91
2023-03-10T14:57:16.012Z,94271.31
2023-03-10T14:59:43.943Z,94279.38
2023-03-10T15:02:21.672Z,94273.09
2023-03-10T15:04:49.659Z,94281.91
2023-03-10T15:07:17.692Z,94285.56
2023-03-10T15:09:45.893Z,94276.25
2023-03-10T15:12:17.861Z,94270.53
2023-03-10T15:14:52.144Z,94279.69
2023-03-10T15:17:21.469Z,94286.69
2023-03-10T15:19:49.555Z,94283.53
2023-03-10T15:22:17.532Z,94284.31
2023-03-10T15:24:45.516Z,94278.59
2023-03-10T15:27:14.477Z,94273.69
2023-03-10T15:29:42.422Z,94282.53
2023-03-10T15:32:10.477Z,94283.03
2023-03-10T15:34:39.750Z,94284.59
2023-03-10T15:37:08.720Z,94288.25
2023-03-10T15:39:37.357Z,94290.78
2023-03-10T15:42:05.633Z,94298.06
2023-03-10T15:44:33.584Z,94285.09
2023-03-10T15:47:01.685Z,94278.84
2023-03-10T15:49:29.652Z,94264.69
2023-03-10T15:51:59.017Z,94253.00
2023-03-10T15:54:26.956Z,94259.47
2023-03-10T15:56:54.844Z,94263.09
2023-03-10T15:59:22.896Z,94276.69
2023-03-10T16:01:52.501Z,94303.22
2023-03-10T16:04:20.588Z,94306.94
2023-03-10T16:06:48.562Z,94305.66
2023-03-10T16:09:18.655Z,94308.03
2023-03-10T16:11:46.704Z,94309.63
2023-03-10T16:14:14.691Z,94301.22
2023-03-10T16:16:42.693Z,94273.53
2023-03-10T16:19:10.843Z,94280.34
2023-03-10T16:21:38.733Z,94264.69
2023-03-10T16:24:06.901Z,94267.06
2023-03-10T16:26:37.251Z,94271.47
2023-03-10T16:29:05.322Z,94277.72
2023-03-10T16:31:33.619Z,94276.69
2023-03-10T16:34:01.551Z,94276.69
2023-03-10T16:36:29.929Z,94289.19
2023-03-10T16:38:58.052Z,94309.00
2023-03-10T16:41:29.341Z,94309.97
2023-03-10T16:43:59.115Z,94315.25
2023-03-10T16:46:30.283Z,94312.63
2023-03-10T16:48:59.398Z,94320.91
2023-03-10T16:51:29.594Z,94323.44
2023-03-10T16:53:59.575Z,94331.81
2023-03-10T16:56:29.105Z,94338.63
2023-03-10T16:58:57.788Z,94336.56
2023-03-10T17:01:27.489Z,94336.72
2023-03-10T17:03:56.213Z,94323.44
2023-03-10T17:06:26.114Z,94331.06
2023-03-10T17:08:54.903Z,94322.69
2023-03-10T17:11:25.329Z,94332.00
2023-03-10T17:13:54.266Z,94333.75
2023-03-10T17:16:24.399Z,94341.69
2023-03-10T17:18:53.907Z,94333.09
2023-03-10T17:21:24.838Z,94346.91
2023-03-10T17:23:52.803Z,94361.06
2023-03-10T17:26:21.565Z,94364.25
2023-03-10T17:28:52.300Z,94355.84
2023-03-10T17:31:23.651Z,94376.69
2023-03-10T17:33:53.057Z,94370.53
2023-03-10T17:36:21.452Z,94386.78
2023-03-10T17:38:49.500Z,94382.97
2023-03-10T17:41:17.535Z,94397.13
2023-03-10T17:43:45.461Z,94390.41
2023-03-10T17:46:15.732Z,94411.03
2023-03-10T17:48:44.196Z,94428.13
2023-03-10T17:51:17.537Z,94444.31
2023-03-10T17:53:45.855Z,94432.56
2023-03-10T17:56:16.180Z,94440.81
2023-03-10T17:58:44.442Z,94443.63
2023-03-10T18:01:13.961Z,94468.53
2023-03-10T18:03:42.749Z,94460.06
2023-03-10T18:06:14.883Z,94488.47
2023-03-10T18:08:44.345Z,94482.28
2023-03-10T18:11:12.410Z,94485.91
2023-03-10T18:13:41.337Z,94496.28
2023-03-10T18:16:16.877Z,94498.91
2023-03-10T18:18:44.982Z,94508.84
2023-03-10T18:21:14.266Z,94514.22
2023-03-10T18:23:42.743Z,94528.69
2023-03-10T18:26:14.167Z,94530.50
2023-03-10T18:28:42.217Z,94537.56
2023-03-10T18:31:12.234Z,94541.69
2023-03-10T18:33:40.175Z,94541.34
2023-03-10T18:36:09.296Z,94544.34
2023-03-10T18:38:37.279Z,94543.63
2023-03-10T18:41:05.257Z,94552.72
2023-03-10T18:43:34.611Z,94548.59
2023-03-10T18:46:02.990Z,94546.41
2023-03-10T18:48:31.357Z,94555.56
2023-03-10T18:51:01.075Z,94545.03
2023-03-10T18:53:29.447Z,94558.72
2023-03-10T18:55:58.941Z,94552.84
2023-03-10T18:58:27.009Z,94561.31
2023-03-10T19:00:56.925Z,94559.50
2023-03-10T19:03:24.906Z,94554.97
2023-03-10T19:05:54.576Z,94560.16
2023-03-10T19:08:23.271Z,94555.66
2023-03-10T19:10:56.333Z,94566.06
2023-03-10T19:13:25.287Z,94569.69
2023-03-10T19:15:53.423Z,94570.91
2023-03-10T19:18:23.610Z,94566.16
2023-03-10T19:20:51.882Z,94571.59
2023-03-10T19:23:19.975Z,94568.19
2023-03-10T19:25:47.994Z,94573.00
2023-03-10T19:28:15.956Z,94575.03
2023-03-10T19:30:43.950Z,94582.84
2023-03-10T19:33:11.955Z,94577.59
2023-03-10T19:35:41.318Z,94584.59
2023-03-10T19:38:09.585Z,94583.28
2023-03-10T19:40:38.556Z,94572.66
2023-03-10T19:43:06.461Z,94576.63
2023-03-10T19:45:34.416Z,94575.47
2023-03-10T19:48:02.333Z,94577.94
2023-03-10T19:50:30.300Z,94579.84
2023-03-10T19:52:59.585Z,94581.72
2023-03-10T19:55:27.664Z,94580.13
2023-03-10T19:57:57.270Z,94590.25
2023-03-10T20:00:31.069Z,94583.47
2023-03-10T20:02:59.694Z,94604.66
2023-03-10T20:05:27.972Z,94601.31
2023-03-10T20:07:55.883Z,94602.41
2023-03-10T20:10:25.444Z,94608.41
2023-03-10T20:12:53.564Z,94598.88
2023-03-10T20:15:21.495Z,94600.19
2023-03-10T20:17:49.636Z,94590.38
2023-03-10T20:20:20.084Z,94587.91
2023-03-10T20:22:50.448Z,94594.56
2023-03-10T20:25:20.670Z,94596.72
2023-03-10T20:27:52.200Z,94599.16
2023-03-10T20:30:22.553Z,94602.25
2023-03-10T20:32:50.633Z,94606.25
2023-03-10T20:35:19.136Z,94604.66
2023-03-10T20:37:47.076Z,94602.47
2023-03-10T20:40:19.511Z,94594.34
2023-03-10T20:42:47.426Z,94589.44
2023-03-10T20:45:16.948Z,94589.78
2023-03-10T20:47:44.871Z,94585.25
2023-03-10T20:50:13.687Z,94581.56
2023-03-10T20:52:43.172Z,94578.38
2023-03-10T20:55:19.666Z,94581.19
2023-03-10T20:57:47.972Z,94582.28
2023-03-10T21:00:19.575Z,94575.78
2023-03-10T21:02:49.164Z,94577.81
2023-03-10T21:05:17.325Z,94576.56
2023-03-10T21:07:45.247Z,94586.59
2023-03-10T21:10:15.476Z,94578.38
2023-03-10T21:12:44.145Z,94571.34
2023-03-10T21:15:14.339Z,94581.97
2023-03-10T21:17:44.210Z,94586.03
2023-03-10T21:20:15.844Z,94582.72
2023-03-10T21:22:44.118Z,94588.31
2023-03-10T21:25:15.211Z,94589.31
2023-03-10T21:27:44.270Z,94578.94
2023-03-10T21:30:14.624Z,94572.44
2023-03-10T21:32:44.358Z,94580.44
2023-03-10T21:35:13.691Z,94586.69
2023-03-10T21:37:44.269Z,94585.69
2023-03-10T21:40:15.017Z,94583.69
2023-03-10T21:42:43.439Z,94576.09
2023-03-10T21:45:14.393Z,94579.56
2023-03-10T21:47:43.859Z,94562.34
2023-03-10T21:50:13.544Z,94566.81
2023-03-10T21:52:41.821Z,94570.84
2023-03-10T21:55:16.333Z,94573.00
2023-03-10T21:57:44.230Z,94583.72
2023-03-10T22:00:13.660Z,94569.09
2023-03-10T22:02:43.336Z,94569.88
2023-03-10T22:05:14.072Z,94574.75
2023-03-10T22:07:42.869Z,94559.19
2023-03-10T22:10:12.789Z,94568.97
2023-03-10T22:12:41.311Z,94564.75
2023-03-10T22:15:15.152Z,94565.16
2023-03-10T22:17:44.553Z,94570.41
2023-03-10T22:20:16.269Z,94560.91
2023-03-10T22:22:44.184Z,94551.34
2023-03-10T22:25:12.566Z,94549.41
2023-03-10T22:27:40.481Z,94547.03
2023-03-10T22:30:09.429Z,94547.47
2023-03-10T22:32:37.541Z,94540.69
2023-03-10T22:35:07.469Z,94521.66
2023-03-10T22:37:35.379Z,94518.94
2023-03-10T22:40:05.155Z,94518.34
2023-03-10T22:42:33.201Z,94506.50
2023-03-10T22:45:01.941Z,94494.53
2023-03-10T22:47:29.911Z,94484.59
2023-03-10T22:49:57.814Z,94483.00
2023-03-10T22:52:27.189Z,94481.44
2023-03-10T22:54:55.087Z,94495.75
2023-03-10T22:57:23.007Z,94483.59
2023-03-10T22:59:50.986Z,94475.22
2023-03-10T23:02:18.944Z,94467.44
2023-03-10T23:04:47.023Z,94474.94
2023-03-10T23:07:14.962Z,94454.94
2023-03-10T23:09:44.287Z,94464.88
2023-03-10T23:12:12.226Z,94458.84
2023-03-10T23:14:40.126Z,94447.31
2023-03-10T23:17:08.361Z,94441.75
2023-03-10T23:19:36.623Z,94446.59
2023-03-10T23:22:04.910Z,94444.69
2023-03-10T23:24:32.900Z,94438.66
2023-03-10T23:27:02.181Z,94441.53
2023-03-10T23:29:30.102Z,94435.19
2023-03-10T23:31:58.022Z,94410.97
2023-03-10T23:34:25.978Z,94415.56
2023-03-10T23:36:55.856Z,94397.88
2023-03-10T23:39:23.822Z,94391.69
2023-03-10T23:41:52.388Z,94383.34
2023-03-10T23:44:22.657Z,94375.69
2023-03-10T23:46:52.237Z,94389.38
2023-03-10T23:49:22.190Z,94374.38
2023-03-10T23:51:53.266Z,94380.75
2023-03-10T23:54:22.514Z,94369.19
2023-03-10T23:56:51.071Z,94349.97
2023-03-10T23:59:19.028Z,94341.97
